CA-0176 weather

CLOSED Johnson Point Airport
Northwest Territories, Canada

Public forecast

Using degrees Celsius for public forecast. Weather courtesy of forecast.io.

METAR (pilot weather report)

Closest report is Sachs Harbour (David Nasogaluak Jr. Saaryuaq) Airport, 131.0 nm (242.5 km) WSW. Retrieved 2019/04/23 15:00 UTC (46 minutes ago):

CYSY 231500Z 06014KT 15SM FEW100 FEW250 M17/M21 A3009 RMK AC1CS1 CS TR SLP204

TAF (pilot weather forecast)

Closest forecast is Sachs Harbour (David Nasogaluak Jr. Saaryuaq) Airport, 131.0 nm (242.5 km) WSW. Retrieved 2019/04/23 15:00 UTC (46 minutes ago):

TAF CYSY 231438Z 2315/2323 06018KT P6SM FEW070 RMK NXT FCST BY 231900Z